createdAt,value
2022-09-02T00:01:00.552Z,15.80
2022-09-02T00:04:07.733Z,15.70
2022-09-02T00:07:11.058Z,15.70
2022-09-02T00:10:14.297Z,15.70
2022-09-02T00:13:20.739Z,15.70
2022-09-02T00:16:25.199Z,15.70
2022-09-02T00:19:29.832Z,15.60
2022-09-02T00:22:32.850Z,15.60
2022-09-02T00:25:36.617Z,15.50
2022-09-02T00:28:48.845Z,15.50
2022-09-02T00:31:52.453Z,15.40
2022-09-02T00:34:56.091Z,15.40
2022-09-02T00:38:00.655Z,15.40
2022-09-02T00:41:06.892Z,15.40
2022-09-02T00:44:13.650Z,15.40
2022-09-02T00:47:17.713Z,15.40
2022-09-02T00:50:27.891Z,15.40
2022-09-02T00:53:31.835Z,15.30
2022-09-02T00:56:37.071Z,15.30
2022-09-02T00:59:47.373Z,15.20
2022-09-02T01:02:54.197Z,15.20
2022-09-02T01:05:59.588Z,15.20
2022-09-02T01:09:08.438Z,15.20
2022-09-02T01:12:14.979Z,15.20
2022-09-02T01:15:19.369Z,15.20
2022-09-02T01:18:25.686Z,15.20
2022-09-02T01:21:28.806Z,15.20
2022-09-02T01:24:35.209Z,15.10
2022-09-02T01:27:38.202Z,15.10
2022-09-02T01:30:47.174Z,15.10
2022-09-02T01:33:51.314Z,15.00
2022-09-02T01:36:56.494Z,14.90
2022-09-02T01:40:01.389Z,14.90
2022-09-02T01:43:09.447Z,14.80
2022-09-02T01:46:12.549Z,14.70
2022-09-02T01:49:15.855Z,14.70
2022-09-02T01:52:19.891Z,14.80
2022-09-02T01:55:24.445Z,14.80
2022-09-02T01:58:27.478Z,14.80
2022-09-02T02:01:30.726Z,14.80
2022-09-02T02:04:33.980Z,14.80
2022-09-02T02:07:37.107Z,14.80
2022-09-02T02:10:43.844Z,14.80
2022-09-02T02:13:46.834Z,14.80
2022-09-02T02:16:51.069Z,14.80
2022-09-02T02:19:54.110Z,14.80
2022-09-02T02:22:57.117Z,14.80
2022-09-02T02:26:01.639Z,14.60
2022-09-02T02:29:05.053Z,14.60
2022-09-02T02:32:08.439Z,14.60
2022-09-02T02:35:11.963Z,14.60
2022-09-02T02:38:15.829Z,14.60
2022-09-02T02:41:20.730Z,14.60
2022-09-02T02:44:24.299Z,14.60
2022-09-02T02:47:27.641Z,14.60
2022-09-02T02:50:30.647Z,14.50
2022-09-02T02:53:36.891Z,14.60
2022-09-02T02:56:41.370Z,14.50
2022-09-02T02:59:44.425Z,14.40
2022-09-02T03:02:47.632Z,14.40
2022-09-02T03:05:52.296Z,14.40
2022-09-02T03:08:56.582Z,14.20
2022-09-02T03:12:01.433Z,14.20
2022-09-02T03:15:05.478Z,14.20
2022-09-02T03:18:09.051Z,14.20
2022-09-02T03:21:12.702Z,14.30
2022-09-02T03:24:15.747Z,14.30
2022-09-02T03:27:20.089Z,14.30
2022-09-02T03:30:26.068Z,14.30
2022-09-02T03:33:29.158Z,14.20
2022-09-02T03:36:34.854Z,14.20
2022-09-02T03:39:37.919Z,14.20
2022-09-02T03:42:42.393Z,14.20
2022-09-02T03:45:46.229Z,14.20
2022-09-02T03:48:51.897Z,14.10
2022-09-02T03:51:55.071Z,14.10
2022-09-02T03:54:58.155Z,14.10
2022-09-02T03:58:06.556Z,14.10
2022-09-02T04:01:15.503Z,14.10
2022-09-02T04:04:22.864Z,14.10
2022-09-02T04:07:26.064Z,14.10
2022-09-02T04:10:29.150Z,14.00
2022-09-02T04:13:34.234Z,13.90
2022-09-02T04:16:37.506Z,13.90
2022-09-02T04:19:40.693Z,13.90
2022-09-02T04:22:43.719Z,13.90
2022-09-02T04:25:46.789Z,13.80
2022-09-02T04:28:51.505Z,13.70
2022-09-02T04:31:54.887Z,13.70
2022-09-02T04:34:57.891Z,13.60
2022-09-02T04:38:00.889Z,13.60
2022-09-02T04:41:08.290Z,13.60
2022-09-02T04:44:12.747Z,13.50
2022-09-02T04:47:15.831Z,13.60
2022-09-02T04:50:19.146Z,13.70
2022-09-02T04:53:22.280Z,13.70
2022-09-02T04:56:27.752Z,13.70
2022-09-02T04:59:32.215Z,13.70
2022-09-02T05:02:35.731Z,13.80
2022-09-02T05:05:39.630Z,13.80
2022-09-02T05:08:42.809Z,13.80
2022-09-02T05:11:48.007Z,13.90
2022-09-02T05:14:52.382Z,13.90
2022-09-02T05:17:55.485Z,13.90
2022-09-02T05:20:58.522Z,14.00
2022-09-02T05:24:01.687Z,14.00
2022-09-02T05:27:04.951Z,14.00
2022-09-02T05:30:10.438Z,14.00
2022-09-02T05:33:14.649Z,14.00
2022-09-02T05:36:21.079Z,14.10
2022-09-02T05:39:24.139Z,14.10
2022-09-02T05:42:27.262Z,14.20
2022-09-02T05:45:31.706Z,14.30
2022-09-02T05:48:52.244Z,14.30
2022-09-02T05:51:57.179Z,14.30
2022-09-02T05:55:00.440Z,14.30
2022-09-02T05:58:03.470Z,14.30
2022-09-02T06:01:10.637Z,14.40
2022-09-02T06:04:13.784Z,14.50
2022-09-02T06:07:19.806Z,14.50
2022-09-02T06:10:22.803Z,14.50
2022-09-02T06:13:25.795Z,14.60
2022-09-02T06:16:30.442Z,14.70
2022-09-02T06:19:33.718Z,14.80
2022-09-02T06:22:36.733Z,14.80
2022-09-02T06:25:39.991Z,14.80
2022-09-02T06:28:43.239Z,14.90
2022-09-02T06:31:48.995Z,14.90
2022-09-02T06:34:52.006Z,15.00
2022-09-02T06:37:55.034Z,15.00
2022-09-02T06:40:58.031Z,15.10
2022-09-02T06:44:03.277Z,15.20
2022-09-02T06:47:07.746Z,15.20
2022-09-02T06:50:11.482Z,15.30
2022-09-02T06:53:15.020Z,15.40
2022-09-02T06:56:18.241Z,15.50
2022-09-02T06:59:22.489Z,15.60
2022-09-02T07:02:26.872Z,15.70
2022-09-02T07:05:28.935Z,15.80
2022-09-02T07:08:32.064Z,15.90
2022-09-02T07:11:36.250Z,16.00
2022-09-02T07:14:41.446Z,16.10
2022-09-02T07:17:45.883Z,16.10
2022-09-02T07:20:49.312Z,16.20
2022-09-02T07:23:52.716Z,16.30
2022-09-02T07:26:55.968Z,16.40
2022-09-02T07:30:00.025Z,16.50
2022-09-02T07:33:05.191Z,16.60
2022-09-02T07:36:11.139Z,16.80
2022-09-02T07:39:16.604Z,16.80
2022-09-02T07:42:19.681Z,17.00
2022-09-02T07:45:23.204Z,17.10
2022-09-02T07:48:28.691Z,17.20
2022-09-02T07:51:31.973Z,17.40
2022-09-02T07:54:35.071Z,17.60
2022-09-02T07:57:38.074Z,18.10
2022-09-02T08:00:42.772Z,18.30
2022-09-02T08:03:47.386Z,18.40
2022-09-02T08:06:52.129Z,18.50
2022-09-02T08:09:55.148Z,18.50
2022-09-02T08:13:00.737Z,18.60
2022-09-02T08:16:05.035Z,18.70
2022-09-02T08:19:09.575Z,19.00
2022-09-02T08:22:12.640Z,19.30
2022-09-02T08:25:18.177Z,19.70
2022-09-02T08:28:21.230Z,19.80
2022-09-02T08:31:24.383Z,19.80
2022-09-02T08:34:29.228Z,19.90
2022-09-02T08:37:33.585Z,20.10
2022-09-02T08:40:39.366Z,20.10
2022-09-02T08:43:45.062Z,20.10
2022-09-02T08:46:49.935Z,20.10
2022-09-02T08:49:58.408Z,20.20
2022-09-02T08:53:09.024Z,20.20
2022-09-02T08:56:13.047Z,20.10
2022-09-02T08:59:16.421Z,20.10
2022-09-02T09:02:27.622Z,20.20
2022-09-02T09:05:44.165Z,20.20
2022-09-02T09:08:55.607Z,20.20
2022-09-02T09:12:08.990Z,20.20
2022-09-02T09:15:16.466Z,20.20
2022-09-02T09:18:26.491Z,20.30
2022-09-02T09:21:32.093Z,20.30
2022-09-02T09:24:39.500Z,20.30
2022-09-02T09:27:42.811Z,20.30
2022-09-02T09:30:45.945Z,20.30
2022-09-02T09:33:59.557Z,20.30
2022-09-02T09:37:03.943Z,20.40
2022-09-02T09:40:31.457Z,20.50
2022-09-02T09:43:34.522Z,20.60
2022-09-02T09:46:37.529Z,20.70
2022-09-02T09:49:40.738Z,20.70
2022-09-02T09:52:45.299Z,20.80
2022-09-02T09:55:54.390Z,20.70
2022-09-02T09:58:57.454Z,20.80
2022-09-02T10:02:00.558Z,20.90
2022-09-02T10:05:17.014Z,21.00
2022-09-02T10:08:24.163Z,21.10
2022-09-02T10:11:28.975Z,21.20
2022-09-02T10:14:36.344Z,21.30
2022-09-02T10:17:51.898Z,21.40
2022-09-02T10:21:15.311Z,21.40
2022-09-02T10:24:38.239Z,21.60
2022-09-02T10:27:50.836Z,21.70
2022-09-02T10:31:02.713Z,21.80
2022-09-02T10:34:17.060Z,22.20
2022-09-02T10:37:22.967Z,22.20
2022-09-02T10:40:37.571Z,22.00
2022-09-02T10:43:56.745Z,21.70
2022-09-02T10:47:02.620Z,21.70
2022-09-02T10:50:16.897Z,22.00
2022-09-02T10:53:37.409Z,22.20
2022-09-02T10:56:50.622Z,22.20
2022-09-02T11:00:12.657Z,22.50
2022-09-02T11:03:20.799Z,23.10
2022-09-02T11:06:35.351Z,23.70
2022-09-02T11:09:48.916Z,23.70
2022-09-02T11:13:00.727Z,23.90
2022-09-02T11:16:15.301Z,24.30
2022-09-02T11:19:23.575Z,25.10
2022-09-02T11:22:35.613Z,25.90
2022-09-02T11:25:47.011Z,26.70
2022-09-02T11:28:57.638Z,27.00
2022-09-02T11:32:06.890Z,27.90
2022-09-02T11:35:15.605Z,27.90
2022-09-02T11:38:32.670Z,27.30
2022-09-02T11:41:48.835Z,26.30
2022-09-02T11:45:18.183Z,25.90
2022-09-02T11:48:54.533Z,25.90
2022-09-02T11:52:25.471Z,25.50
2022-09-02T11:55:35.285Z,25.10
2022-09-02T11:58:40.613Z,24.60
2022-09-02T12:01:52.301Z,24.60
2022-09-02T12:05:29.721Z,24.50
2022-09-02T12:09:04.659Z,24.50
2022-09-02T12:12:07.831Z,24.50
2022-09-02T12:15:16.870Z,24.40
2022-09-02T12:18:31.972Z,24.30
2022-09-02T12:21:36.262Z,24.20
2022-09-02T12:24:52.739Z,24.30
2022-09-02T12:28:19.091Z,24.10
2022-09-02T12:31:41.164Z,23.80
2022-09-02T12:35:13.403Z,23.70
2022-09-02T12:38:34.045Z,24.20
2022-09-02T12:41:44.376Z,24.20
2022-09-02T12:44:54.376Z,23.90
2022-09-02T12:48:02.197Z,23.80
2022-09-02T12:51:06.690Z,23.70
2022-09-02T12:54:09.871Z,24.40
2022-09-02T12:57:16.188Z,25.90
2022-09-02T13:00:28.529Z,25.70
2022-09-02T13:03:58.682Z,25.20
2022-09-02T13:07:28.597Z,24.90
2022-09-02T13:11:12.864Z,24.90
2022-09-02T13:14:47.294Z,26.60
2022-09-02T13:18:20.694Z,28.20
2022-09-02T13:21:51.324Z,28.00
2022-09-02T13:25:19.682Z,26.80
2022-09-02T13:28:49.250Z,26.00
2022-09-02T13:32:01.343Z,25.10
2022-09-02T13:35:07.991Z,24.60
2022-09-02T13:38:12.746Z,24.30
2022-09-02T13:41:30.721Z,24.20
2022-09-02T13:44:33.845Z,24.00
2022-09-02T13:47:37.531Z,23.90
2022-09-02T13:50:45.432Z,24.00
2022-09-02T13:54:21.787Z,24.20
2022-09-02T13:57:21.047Z,24.20
2022-09-02T14:00:32.048Z,24.30
2022-09-02T14:03:35.340Z,24.20
2022-09-02T14:06:41.215Z,24.20
2022-09-02T14:09:46.535Z,24.10
2022-09-02T14:12:52.090Z,23.80
2022-09-02T14:15:55.642Z,23.80
2022-09-02T14:19:06.862Z,23.70
2022-09-02T14:22:23.959Z,23.70
2022-09-02T14:25:28.815Z,23.80
2022-09-02T14:28:35.655Z,23.60
2022-09-02T14:31:38.756Z,23.60
2022-09-02T14:34:43.310Z,23.40
2022-09-02T14:37:51.683Z,23.50
2022-09-02T14:41:01.847Z,23.60
2022-09-02T14:44:13.491Z,23.80
2022-09-02T14:47:20.800Z,23.80
2022-09-02T14:50:30.023Z,23.70
2022-09-02T14:53:33.658Z,23.60
2022-09-02T14:56:48.086Z,23.50
2022-09-02T14:59:52.625Z,23.40
2022-09-02T15:02:59.399Z,23.30
2022-09-02T15:06:02.408Z,23.20
2022-09-02T15:09:05.461Z,23.20
2022-09-02T15:12:09.126Z,23.10
2022-09-02T15:15:13.589Z,23.20
2022-09-02T15:18:16.619Z,23.10
2022-09-02T15:21:20.980Z,23.20
2022-09-02T15:24:24.280Z,23.10
2022-09-02T15:27:27.333Z,23.00
2022-09-02T15:30:31.673Z,22.90
2022-09-02T15:33:35.112Z,22.80
2022-09-02T15:36:38.136Z,22.80
2022-09-02T15:39:41.607Z,22.90
2022-09-02T15:42:44.686Z,23.00
2022-09-02T15:45:49.381Z,23.10
2022-09-02T15:48:53.281Z,23.20
2022-09-02T15:51:56.459Z,23.20
2022-09-02T15:54:59.961Z,23.30
2022-09-02T15:58:03.082Z,23.20
2022-09-02T16:01:07.813Z,23.20
2022-09-02T16:04:11.631Z,23.20
2022-09-02T16:07:16.869Z,23.20
2022-09-02T16:10:20.419Z,23.10
2022-09-02T16:13:23.518Z,23.20
2022-09-02T16:16:28.047Z,23.10
2022-09-02T16:19:31.187Z,23.10
2022-09-02T16:22:34.200Z,23.00
2022-09-02T16:25:38.111Z,23.00
2022-09-02T16:28:42.902Z,23.00
2022-09-02T16:35:11.992Z,22.90
2022-09-02T16:38:15.710Z,22.80
2022-09-02T16:41:28.150Z,22.80
2022-09-02T16:44:33.779Z,22.70
2022-09-02T16:47:38.147Z,22.70
2022-09-02T16:50:41.129Z,22.60
2022-09-02T16:53:46.308Z,22.60
2022-09-02T16:56:50.687Z,22.50
2022-09-02T16:59:53.672Z,22.50
2022-09-02T17:02:58.005Z,22.40
2022-09-02T17:06:01.337Z,22.30
2022-09-02T17:09:05.520Z,22.30
2022-09-02T17:12:08.811Z,22.30
2022-09-02T17:15:11.795Z,22.20
2022-09-02T17:18:16.147Z,22.10
2022-09-02T17:21:23.981Z,22.00
2022-09-02T17:24:30.492Z,21.90
2022-09-02T17:27:36.190Z,21.90
2022-09-02T17:30:39.262Z,21.80
2022-09-02T17:33:43.767Z,21.70
2022-09-02T17:36:47.847Z,21.70
2022-09-02T17:39:51.338Z,21.60
2022-09-02T17:42:53.499Z,21.50
2022-09-02T17:46:05.995Z,21.40
2022-09-02T17:49:17.341Z,21.30
2022-09-02T17:52:23.088Z,21.30
2022-09-02T17:55:26.339Z,21.20
2022-09-02T17:58:34.874Z,21.20
2022-09-02T18:01:42.976Z,21.10
2022-09-02T18:04:59.357Z,21.10
2022-09-02T18:08:09.625Z,21.00
2022-09-02T18:11:12.634Z,20.90
2022-09-02T18:14:22.119Z,20.90
2022-09-02T18:17:31.887Z,20.80
2022-09-02T18:20:43.017Z,20.70
2022-09-02T18:23:57.751Z,20.70
2022-09-02T18:27:10.394Z,20.70
2022-09-02T18:30:17.001Z,20.70
2022-09-02T18:33:39.424Z,20.60
2022-09-02T18:36:55.607Z,20.60
2022-09-02T18:40:10.447Z,20.50
2022-09-02T18:43:22.129Z,20.50
2022-09-02T18:46:28.965Z,20.50
2022-09-02T18:49:36.302Z,20.50
2022-09-02T18:52:42.960Z,20.40
2022-09-02T18:55:48.391Z,20.40
2022-09-02T18:58:57.957Z,20.30
2022-09-02T19:02:07.588Z,20.30
2022-09-02T19:05:13.067Z,20.20
2022-09-02T19:08:34.055Z,20.20
2022-09-02T19:11:38.621Z,20.20
2022-09-02T19:14:41.685Z,20.10
2022-09-02T19:17:44.714Z,20.10
2022-09-02T19:20:48.039Z,20.00
2022-09-02T19:23:52.580Z,20.00
2022-09-02T19:27:02.652Z,19.90
2022-09-02T19:30:09.190Z,19.90
2022-09-02T19:33:14.647Z,19.80
2022-09-02T19:36:18.985Z,19.70
2022-09-02T19:39:23.415Z,19.70
2022-09-02T19:42:27.052Z,19.70
2022-09-02T19:45:30.795Z,19.60
2022-09-02T19:48:35.853Z,19.60
2022-09-02T19:51:38.867Z,19.60
2022-09-02T19:54:44.345Z,19.60
2022-09-02T19:57:47.750Z,19.50
2022-09-02T20:00:52.087Z,19.50
2022-09-02T20:03:55.139Z,19.50
2022-09-02T20:06:58.821Z,19.40
2022-09-02T20:10:03.302Z,19.40
2022-09-02T20:13:07.243Z,19.40
2022-09-02T20:16:19.833Z,19.40
2022-09-02T20:19:23.127Z,19.20
2022-09-02T20:22:30.574Z,19.30
2022-09-02T20:25:47.409Z,19.30
2022-09-02T20:29:00.511Z,19.30
2022-09-02T20:32:11.232Z,19.20
2022-09-02T20:35:38.319Z,19.20
2022-09-02T20:39:05.346Z,19.20
2022-09-02T20:42:26.171Z,19.20
2022-09-02T20:45:36.301Z,19.10
2022-09-02T20:48:53.074Z,19.10
2022-09-02T20:52:03.343Z,19.00
2022-09-02T20:55:15.430Z,19.00
2022-09-02T20:58:32.843Z,19.00
2022-09-02T21:01:38.998Z,18.90
2022-09-02T21:04:46.887Z,18.90
2022-09-02T21:07:56.051Z,18.80
2022-09-02T21:11:01.409Z,18.80
2022-09-02T21:14:10.609Z,18.70
2022-09-02T21:17:20.698Z,18.70
2022-09-02T21:20:29.714Z,18.70
2022-09-02T21:23:38.417Z,18.70
2022-09-02T21:26:49.145Z,18.70
2022-09-02T21:30:02.293Z,18.70
2022-09-02T21:33:09.737Z,18.60
2022-09-02T21:36:23.982Z,18.60
2022-09-02T21:39:29.672Z,18.60
2022-09-02T21:42:48.315Z,18.60
2022-09-02T21:46:01.430Z,18.60
2022-09-02T21:49:13.914Z,18.60
2022-09-02T21:52:27.055Z,18.60
2022-09-02T21:55:48.668Z,18.60
2022-09-02T21:59:06.295Z,18.60
2022-09-02T22:02:16.098Z,18.60
2022-09-02T22:05:33.165Z,18.50
2022-09-02T22:08:44.619Z,18.40
2022-09-02T22:11:54.352Z,18.40
2022-09-02T22:15:04.023Z,18.40
2022-09-02T22:18:17.569Z,18.40
2022-09-02T22:21:30.413Z,18.40
2022-09-02T22:24:37.156Z,18.30
2022-09-02T22:27:46.145Z,18.30
2022-09-02T22:30:56.647Z,18.20
2022-09-02T22:34:04.696Z,18.20
2022-09-02T22:37:12.029Z,18.20
2022-09-02T22:40:17.520Z,18.10
2022-09-02T22:43:24.550Z,18.10
2022-09-02T22:46:50.682Z,18.10
2022-09-02T22:50:15.578Z,17.90
2022-09-02T22:53:18.579Z,17.90
2022-09-02T22:56:35.848Z,18.00
2022-09-02T22:59:48.674Z,17.90
2022-09-02T23:03:04.842Z,17.80
2022-09-02T23:06:19.853Z,17.80
2022-09-02T23:09:22.933Z,17.70
2022-09-02T23:12:31.890Z,17.70
2022-09-02T23:15:42.546Z,17.70
2022-09-02T23:18:57.812Z,17.60
2022-09-02T23:22:09.324Z,17.50
2022-09-02T23:25:33.522Z,17.50
2022-09-02T23:28:52.246Z,17.40
2022-09-02T23:32:33.645Z,17.30
2022-09-02T23:35:45.670Z,17.30
2022-09-02T23:39:08.483Z,17.20
2022-09-02T23:42:13.392Z,17.20
2022-09-02T23:45:22.472Z,17.20
2022-09-02T23:48:38.588Z,17.10
2022-09-02T23:51:52.452Z,17.10
2022-09-02T23:55:07.632Z,17.10
2022-09-02T23:58:36.877Z,17.00
